Observation data for Haskell on 06/25/2019      Previous  Date  Next       Current Mesonet Observations  Soil Data  Daily Summary Page  Observations in Plain Language
KHA1 250500Z 17008KT 25/21 A299 RMK A01 T02490212  RH  085%=      5-min Rain = 0
KHA1 250505Z 16008G13KT 25/21 A2989 RMK A01 T02490211  RH  085%=      5-min Rain = 0
KHA1 250510Z 16010KT 25/21 A2989 RMK A01 T02480211  RH  085%=      5-min Rain = 0
KHA1 250515Z 17010KT 25/21 A2988 RMK A01 T02470207  RH  083%=      5-min Rain = 0
KHA1 250520Z 17010G15KT 25/19 A2987 RMK A01 T02470187  RH  073%=      5-min Rain = 0
KHA1 250525Z 18010KT 25/17 A2987 RMK A01 T02460174  RH  067%=      5-min Rain = 0
KHA1 250530Z 18007G13KT 24/17 A2988 RMK A01 T02440165  RH  064%=      5-min Rain = 0
KHA1 250535Z 17005KT 24/16 A2988 RMK A01 T02430155  RH  061%=      5-min Rain = 0
KHA1 250540Z 15004G9KT 24/15 A2988 RMK A01 T02420149  RH  059%=      5-min Rain = 0
KHA1 250545Z 16007KT 24/14 A2988 RMK A01 T02440138  RH  054%=      5-min Rain = 0
KHA1 250550Z 16007KT 24/13 A2988 RMK A01 T02440134  RH  053%=      5-min Rain = 0
KHA1 250555Z 16006KT 24/13 A2988 RMK A01 T02430130  RH  051%=      5-min Rain = 0
KHA1 250600Z 17004KT 24/13 A2989 RMK A01 T02420128  RH  051%=      5-min Rain = 0
KHA1 250605Z 15002KT 24/13 A299 RMK A01 T02420126  RH  050%=      5-min Rain = 0
KHA1 250610Z 12002KT 24/13 A299 RMK A01 T02410125  RH  050%=      5-min Rain = 0
KHA1 250615Z 12003KT 24/13 A299 RMK A01 T02390130  RH  053%=      5-min Rain = 0
KHA1 250620Z 14004KT 24/13 A2989 RMK A01 T02390129  RH  052%=      5-min Rain = 0
KHA1 250625Z 15006G11KT 24/13 A2989 RMK A01 T02380127  RH  052%=      5-min Rain = 0
KHA1 250630Z 16007KT 24/13 A2989 RMK A01 T02380128  RH  052%=      5-min Rain = 0
KHA1 250635Z 16006KT 24/13 A2989 RMK A01 T02380129  RH  052%=      5-min Rain = 0
KHA1 250640Z 15007KT 24/13 A2988 RMK A01 T02360130  RH  053%=      5-min Rain = 0
KHA1 250645Z 15007KT 24/13 A2988 RMK A01 T02350131  RH  054%=      5-min Rain = 0
KHA1 250650Z 16006KT 23/13 A2988 RMK A01 T02330130  RH  054%=      5-min Rain = 0
KHA1 250655Z 16007KT 23/13 A2988 RMK A01 T02320132  RH  055%=      5-min Rain = 0
KHA1 250700Z 16007KT 23/13 A2988 RMK A01 T02310132  RH  056%=      5-min Rain = 0
KHA1 250705Z 17006KT 23/13 A2988 RMK A01 T02290134  RH  057%=      5-min Rain = 0
KHA1 250710Z 14006KT 23/13 A2988 RMK A01 T02270134  RH  058%=      5-min Rain = 0
KHA1 250715Z 16004KT 23/14 A2989 RMK A01 T02250135  RH  059%=      5-min Rain = 0
KHA1 250720Z 17004KT 23/14 A2989 RMK A01 T02250135  RH  059%=      5-min Rain = 0
KHA1 250725Z 15005KT 22/14 A2989 RMK A01 T02230136  RH  060%=      5-min Rain = 0
KHA1 250730Z 16004KT 22/14 A2989 RMK A01 T02220136  RH  061%=      5-min Rain = 0
KHA1 250735Z 14005KT 22/14 A2989 RMK A01 T02200137  RH  061%=      5-min Rain = 0
KHA1 250740Z 13003KT 22/14 A2989 RMK A01 T02200138  RH  062%=      5-min Rain = 0
KHA1 250745Z 12002KT 22/14 A2989 RMK A01 T02200140  RH  063%=      5-min Rain = 0
KHA1 250750Z 12003KT 22/14 A2989 RMK A01 T02180142  RH  064%=      5-min Rain = 0
KHA1 250755Z 13004KT 22/14 A2989 RMK A01 T02170143  RH  066%=      5-min Rain = 0
KHA1 250800Z 13005KT 22/14 A2989 RMK A01 T02150141  RH  065%=      5-min Rain = 0
KHA1 250805Z 14003KT 21/14 A2989 RMK A01 T02130142  RH  066%=      5-min Rain = 0
KHA1 250810Z 14003KT 21/14 A2989 RMK A01 T02110139  RH  066%=      5-min Rain = 0
KHA1 250815Z 13003KT 21/14 A2989 RMK A01 T02110141  RH  067%=      5-min Rain = 0
KHA1 250820Z 11002KT 21/14 A2989 RMK A01 T02110143  RH  068%=      5-min Rain = 0
KHA1 250825Z 10002KT 21/14 A2989 RMK A01 T02090144  RH  070%=      5-min Rain = 0
KHA1 250830Z 05001KT 21/14 A2989 RMK A01 T02070143  RH  070%=      5-min Rain = 0
KHA1 250835Z 04003KT 20/14 A2989 RMK A01 T02030142  RH  071%=      5-min Rain = 0
KHA1 250840Z 05004KT 20/14 A299 RMK A01 T02000140  RH  071%=      5-min Rain = 0
KHA1 250845Z 06003KT 20/14 A2989 RMK A01 T02020141  RH  071%=      5-min Rain = 0
KHA1 250850Z 07001KT 20/14 A2989 RMK A01 T01990143  RH  073%=      5-min Rain = 0
KHA1 250855Z 09003KT 20/15 A2989 RMK A01 T01970145  RH  075%=      5-min Rain = 0
KHA1 250900Z 10003KT 20/15 A299 RMK A01 T02000150  RH  076%=      5-min Rain = 0
KHA1 250905Z 11002KT 20/14 A2989 RMK A01 T02010142  RH  072%=      5-min Rain = 0
KHA1 250910Z 10002KT 20/14 A299 RMK A01 T01950144  RH  075%=      5-min Rain = 0
KHA1 250915Z 07002KT 20/14 A299 RMK A01 T01960144  RH  075%=      5-min Rain = 0
KHA1 250920Z 07001KT 20/15 A299 RMK A01 T02000146  RH  074%=      5-min Rain = 0
KHA1 250925Z 06001KT 20/14 A299 RMK A01 T02010143  RH  072%=      5-min Rain = 0
KHA1 250930Z 04000KT 20/15 A299 RMK A01 T01980145  RH  075%=      5-min Rain = 0
KHA1 250935Z 36002KT 19/15 A299 RMK A01 T01940147  RH  077%=      5-min Rain = 0
KHA1 250940Z 03003KT 19/14 A299 RMK A01 T01930144  RH  077%=      5-min Rain = 0
KHA1 250945Z 04003KT 19/14 A299 RMK A01 T01890141  RH  077%=      5-min Rain = 0
KHA1 250950Z 05002KT 19/14 A299 RMK A01 T01870143  RH  079%=      5-min Rain = 0
KHA1 250955Z 05003KT 19/15 A299 RMK A01 T01870145  RH  079%=      5-min Rain = 0
KHA1 251000Z 08004KT 19/15 A299 RMK A01 T01870145  RH  080%=      5-min Rain = 0
KHA1 251005Z 08004KT 19/15 A299 RMK A01 T01910148  RH  080%=      5-min Rain = 0
KHA1 251010Z 09003KT 20/15 A299 RMK A01 T01950146  RH  077%=      5-min Rain = 0
KHA1 251015Z 09002KT 20/15 A299 RMK A01 T01950147  RH  077%=      5-min Rain = 0
KHA1 251020Z 10003KT 19/15 A2991 RMK A01 T01910150  RH  081%=      5-min Rain = 0
KHA1 251025Z 10004KT 19/15 A2991 RMK A01 T01930148  RH  078%=      5-min Rain = 0
KHA1 251030Z 10004KT 20/15 A2991 RMK A01 T01970145  RH  075%=      5-min Rain = 0
KHA1 251035Z 10004KT 20/14 A2991 RMK A01 T01980143  RH  074%=      5-min Rain = 0
KHA1 251040Z 09003KT 20/14 A2992 RMK A01 T01990144  RH  074%=      5-min Rain = 0
KHA1 251045Z 09004KT 20/15 A2992 RMK A01 T02010147  RH  074%=      5-min Rain = 0
KHA1 251050Z 10004KT 20/15 A2992 RMK A01 T02020146  RH  074%=      5-min Rain = 0
KHA1 251055Z 11003KT 20/15 A2992 RMK A01 T01990146  RH  074%=      5-min Rain = 0
KHA1 251100Z 11004KT 20/15 A2992 RMK A01 T01960147  RH  077%=      5-min Rain = 0
KHA1 251105Z 11006KT 20/15 A2993 RMK A01 T01970152  RH  079%=      5-min Rain = 0
KHA1 251110Z 11008KT 20/15 A2994 RMK A01 T01970150  RH  078%=      5-min Rain = 0
KHA1 251115Z 11008KT 20/15 A2995 RMK A01 T01950150  RH  078%=      5-min Rain = 0
KHA1 251120Z 11007KT 19/16 A2995 RMK A01 T01930156  RH  083%=      5-min Rain = 0
KHA1 251125Z 12007KT 19/16 A2995 RMK A01 T01920160  RH  086%=      5-min Rain = 0
KHA1 251130Z 11006KT 19/16 A2995 RMK A01 T01910163  RH  088%=      5-min Rain = 0
KHA1 251135Z 12007KT 19/17 A2995 RMK A01 T01910165  RH  089%=      5-min Rain = 0
KHA1 251140Z 12007KT 19/17 A2995 RMK A01 T01900165  RH  090%=      5-min Rain = 0
KHA1 251145Z 11006KT 19/17 A2995 RMK A01 T01890166  RH  091%=      5-min Rain = 0
KHA1 251150Z 12006KT 19/17 A2995 RMK A01 T01890167  RH  091%=      5-min Rain = 0
KHA1 251155Z 12006KT 19/17 A2996 RMK A01 T01900168  RH  092%=      5-min Rain = 0
KHA1 251200Z 12006KT 19/17 A2996 RMK A01 T01900169  RH  092%=      5-min Rain = 0
KHA1 251205Z 12005KT 19/17 A2996 RMK A01 T01900169  RH  092%=      5-min Rain = 0
KHA1 251210Z 11006KT 19/17 A2996 RMK A01 T01920171  RH  092%=      5-min Rain = 0
KHA1 251215Z 11005KT 19/17 A2996 RMK A01 T01930172  RH  092%=      5-min Rain = 0
KHA1 251220Z 11005KT 19/17 A2996 RMK A01 T01940173  RH  092%=      5-min Rain = 0
KHA1 251225Z 11004KT 20/18 A2996 RMK A01 T01960175  RH  092%=      5-min Rain = 0
KHA1 251230Z 12005KT 20/18 A2996 RMK A01 T01980175  RH  091%=      5-min Rain = 0
KHA1 251235Z 13005KT 20/18 A2997 RMK A01 T02000176  RH  091%=      5-min Rain = 0
KHA1 251240Z 12005KT 20/18 A2997 RMK A01 T02020176  RH  089%=      5-min Rain = 0
KHA1 251245Z 12005KT 21/18 A2997 RMK A01 T02060178  RH  088%=      5-min Rain = 0
KHA1 251250Z 12006KT 21/18 A2997 RMK A01 T02070177  RH  087%=      5-min Rain = 0
KHA1 251255Z 12006KT 21/18 A2997 RMK A01 T02080176  RH  086%=      5-min Rain = 0
KHA1 251300Z 12006KT 21/18 A2997 RMK A01 T02110177  RH  085%=      5-min Rain = 0
KHA1 251305Z 12005KT 21/18 A2998 RMK A01 T02130176  RH  084%=      5-min Rain = 0
KHA1 251310Z 12005KT 22/18 A2998 RMK A01 T02160176  RH  082%=      5-min Rain = 0
KHA1 251315Z 13005KT 22/18 A2998 RMK A01 T02190175  RH  080%=      5-min Rain = 0
KHA1 251320Z 12005KT 22/18 A2998 RMK A01 T02220175  RH  079%=      5-min Rain = 0
KHA1 251325Z 11005KT 23/18 A2998 RMK A01 T02250176  RH  078%=      5-min Rain = 0
KHA1 251330Z 11005KT 23/18 A2998 RMK A01 T02270175  RH  077%=      5-min Rain = 0
KHA1 251335Z 11005KT 23/17 A2999 RMK A01 T02290174  RH  075%=      5-min Rain = 0
KHA1 251340Z 11004KT 23/18 A2999 RMK A01 T02320176  RH  074%=      5-min Rain = 0
KHA1 251345Z 11003KT 24/18 A2999 RMK A01 T02370177  RH  073%=      5-min Rain = 0
KHA1 251350Z 11005KT 24/18 A2999 RMK A01 T02390175  RH  071%=      5-min Rain = 0
KHA1 251355Z 11004KT 24/18 A2999 RMK A01 T02390177  RH  072%=      5-min Rain = 0
KHA1 251400Z 11004KT 25/18 A2999 RMK A01 T02450175  RH  068%=      5-min Rain = 0
KHA1 251405Z 11004KT 25/17 A2999 RMK A01 T02450173  RH  067%=      5-min Rain = 0
KHA1 251410Z 12004KT 25/17 A2999 RMK A01 T02460169  RH  065%=      5-min Rain = 0
KHA1 251415Z 11003KT 25/17 A2999 RMK A01 T02500171  RH  065%=      5-min Rain = 0
KHA1 251420Z 11003KT 25/17 A2999 RMK A01 T02540169  RH  062%=      5-min Rain = 0
KHA1 251425Z 11002KT 26/17 A2999 RMK A01 T02560168  RH  061%=      5-min Rain = 0
KHA1 251430Z 11003KT 26/17 A2999 RMK A01 T02570166  RH  060%=      5-min Rain = 0
KHA1 251435Z 13002KT 26/16 A2999 RMK A01 T02580161  RH  058%=      5-min Rain = 0
KHA1 251440Z 11002KT 26/16 A2999 RMK A01 T02590162  RH  058%=      5-min Rain = 0
KHA1 251445Z 13002KT 26/16 A2999 RMK A01 T02610158  RH  056%=      5-min Rain = 0
KHA1 251450Z 28001KT 27/16 A2999 RMK A01 T02650156  RH  053%=      5-min Rain = 0
KHA1 251455Z 33004KT 26/16 A2999 RMK A01 T02640155  RH  053%=      5-min Rain = 0
KHA1 251500Z 32002KT 26/15 A2999 RMK A01 T02630154  RH  053%=      5-min Rain = 0
KHA1 251505Z 30002KT 27/16 A2999 RMK A01 T02660156  RH  053%=      5-min Rain = 0
KHA1 251510Z 28003KT 27/16 A2999 RMK A01 T02680156  RH  053%=      5-min Rain = 0
KHA1 251515Z 27006KT 27/15 A2999 RMK A01 T02720154  RH  051%=      5-min Rain = 0
KHA1 251520Z 25005KT 27/15 A2999 RMK A01 T02690152  RH  051%=      5-min Rain = 0
KHA1 251525Z 23004KT 27/15 A2999 RMK A01 T02700153  RH  051%=      5-min Rain = 0
KHA1 251530Z 28005KT 27/15 A2999 RMK A01 T02720154  RH  051%=      5-min Rain = 0
KHA1 251535Z 22003G10KT 27/16 A2999 RMK A01 T02730155  RH  051%=      5-min Rain = 0
KHA1 251540Z 23004G9KT 28/16 A2999 RMK A01 T02750155  RH  050%=      5-min Rain = 0
KHA1 251545Z 26005KT 27/15 A2999 RMK A01 T02730153  RH  050%=      5-min Rain = 0
KHA1 251550Z 28006KT 28/15 A2999 RMK A01 T02750154  RH  050%=      5-min Rain = 0
KHA1 251555Z 27004KT 28/16 A2999 RMK A01 T02780156  RH  049%=      5-min Rain = 0
KHA1 251600Z 15002KT 28/16 A30 RMK A01 T02790155  RH  049%=      5-min Rain = 0
KHA1 251605Z 07002KT 28/16 A30 RMK A01 T02830159  RH  049%=      5-min Rain = 0
KHA1 251610Z 24004KT 28/15 A30 RMK A01 T02830154  RH  048%=      5-min Rain = 0
KHA1 251615Z 23004KT 28/15 A30 RMK A01 T02820154  RH  048%=      5-min Rain = 0
KHA1 251620Z 22002KT 28/15 A30 RMK A01 T02800153  RH  048%=      5-min Rain = 0
KHA1 251625Z 19002G9KT 28/16 A30 RMK A01 T02810155  RH  048%=      5-min Rain = 0
KHA1 251630Z 27005KT 29/16 A30 RMK A01 T02860156  RH  047%=      5-min Rain = 0
KHA1 251635Z 29004KT 29/16 A30 RMK A01 T02860156  RH  047%=      5-min Rain = 0
KHA1 251640Z 24004G9KT 29/16 A30 RMK A01 T02850157  RH  048%=      5-min Rain = 0
KHA1 251645Z 20006KT 29/16 A30 RMK A01 T02910158  RH  047%=      5-min Rain = 0
KHA1 251650Z 20007KT 29/16 A30 RMK A01 T02890157  RH  047%=      5-min Rain = 0
KHA1 251655Z 20006G11KT 29/16 A30 RMK A01 T02890156  RH  047%=      5-min Rain = 0
KHA1 251700Z 20006G11KT 29/16 A30 RMK A01 T02920156  RH  046%=      5-min Rain = 0
KHA1 251705Z 19005KT 29/16 A30 RMK A01 T02870157  RH  047%=      5-min Rain = 0
KHA1 251710Z 17005KT 29/16 A30 RMK A01 T02890161  RH  048%=      5-min Rain = 0
KHA1 251715Z 16003G8KT 29/16 A30 RMK A01 T02860161  RH  049%=      5-min Rain = 0
KHA1 251720Z 21005KT 29/16 A30 RMK A01 T02890159  RH  048%=      5-min Rain = 0
KHA1 251725Z 17005KT 29/17 A30 RMK A01 T02940166  RH  049%=      5-min Rain = 0
KHA1 251730Z 16006G11KT 29/17 A30 RMK A01 T02940168  RH  049%=      5-min Rain = 0
KHA1 251735Z 15004KT 29/17 A30 RMK A01 T02910166  RH  049%=      5-min Rain = 0
KHA1 251740Z 15004KT 29/17 A30 RMK A01 T02920166  RH  049%=      5-min Rain = 0
KHA1 251745Z 18006KT 30/16 A30 RMK A01 T02950164  RH  047%=      5-min Rain = 0
KHA1 251750Z 19009KT 30/16 A30 RMK A01 T02970157  RH  045%=      5-min Rain = 0
KHA1 251755Z 20006G11KT 30/16 A30 RMK A01 T03020155  RH  043%=      5-min Rain = 0
KHA1 251800Z 17006KT 30/16 A30 RMK A01 T02990160  RH  045%=      5-min Rain = 0
KHA1 251805Z 18007KT 31/16 A2999 RMK A01 T03050163  RH  045%=      5-min Rain = 0
KHA1 251810Z 13006KT 30/17 A2999 RMK A01 T03040169  RH  047%=      5-min Rain = 0
KHA1 251815Z 17007KT 30/16 A2999 RMK A01 T03030164  RH  045%=      5-min Rain = 0
KHA1 251820Z 19007KT 31/16 A2999 RMK A01 T03090161  RH  043%=      5-min Rain = 0
KHA1 251825Z 19010G15KT 31/16 A2999 RMK A01 T03110160  RH  042%=      5-min Rain = 0
KHA1 251830Z 19009G14KT 31/16 A2999 RMK A01 T03090156  RH  041%=      5-min Rain = 0
KHA1 251835Z 20007G14KT 31/16 A2999 RMK A01 T03070157  RH  042%=      5-min Rain = 0
KHA1 251840Z 18009G15KT 31/16 A2999 RMK A01 T03070162  RH  044%=      5-min Rain = 0
KHA1 251845Z 17008G13KT 31/16 A2999 RMK A01 T03050160  RH  044%=      5-min Rain = 0
KHA1 251850Z 17006G13KT 31/16 A2999 RMK A01 T03050160  RH  044%=      5-min Rain = 0
KHA1 251855Z 18008KT 31/16 A2999 RMK A01 T03110160  RH  042%=      5-min Rain = 0
KHA1 251900Z 16005KT 31/16 A2999 RMK A01 T03080160  RH  043%=      5-min Rain = 0
KHA1 251905Z 16009KT 31/16 A2999 RMK A01 T03100164  RH  043%=      5-min Rain = 0
KHA1 251910Z 14006G11KT 31/17 A2998 RMK A01 T03110167  RH  044%=      5-min Rain = 0
KHA1 251915Z 14007KT 31/17 A2998 RMK A01 T03090167  RH  045%=      5-min Rain = 0
KHA1 251920Z 14007G12KT 31/17 A2998 RMK A01 T03090167  RH  045%=      5-min Rain = 0
KHA1 251925Z 15008G13KT 31/17 A2998 RMK A01 T03120167  RH  044%=      5-min Rain = 0
KHA1 251930Z 15007KT 31/17 A2998 RMK A01 T03110167  RH  044%=      5-min Rain = 0
KHA1 251935Z 16008G13KT 32/16 A2998 RMK A01 T03160164  RH  042%=      5-min Rain = 0
KHA1 251940Z 15009G14KT 32/17 A2997 RMK A01 T03170169  RH  043%=      5-min Rain = 0
KHA1 251945Z 15010KT 31/17 A2997 RMK A01 T03130166  RH  043%=      5-min Rain = 0
KHA1 251950Z 13009G16KT 31/17 A2997 RMK A01 T03120169  RH  044%=      5-min Rain = 0
KHA1 251955Z 14008KT 31/17 A2997 RMK A01 T03120170  RH  045%=      5-min Rain = 0
KHA1 252000Z 17008KT 32/17 A2997 RMK A01 T03180167  RH  042%=      5-min Rain = 0
KHA1 252005Z 14007G12KT 32/17 A2997 RMK A01 T03150167  RH  043%=      5-min Rain = 0
KHA1 252010Z 17006G11KT 32/17 A2997 RMK A01 T03190169  RH  043%=      5-min Rain = 0
KHA1 252015Z 14007G12KT 32/17 A2997 RMK A01 T03220169  RH  042%=      5-min Rain = 0
KHA1 252020Z 15009KT 32/16 A2996 RMK A01 T03150164  RH  042%=      5-min Rain = 0
KHA1 252025Z 16008G13KT 32/16 A2996 RMK A01 T03170163  RH  042%=      5-min Rain = 0
KHA1 252030Z 17007G12KT 32/17 A2996 RMK A01 T03200165  RH  041%=      5-min Rain = 0
KHA1 252035Z 15006KT 32/16 A2996 RMK A01 T03220164  RH  041%=      5-min Rain = 0
KHA1 252040Z 17007G13KT 32/17 A2995 RMK A01 T03210169  RH  042%=      5-min Rain = 0
KHA1 252045Z 17006KT 32/17 A2995 RMK A01 T03230171  RH  042%=      5-min Rain = 0
KHA1 252050Z 17009G14KT 33/17 A2995 RMK A01 T03250172  RH  042%=      5-min Rain = 0
KHA1 252055Z 15007G13KT 32/17 A2995 RMK A01 T03190170  RH  043%=      5-min Rain = 0
KHA1 252100Z 15008G15KT 32/17 A2995 RMK A01 T03220172  RH  043%=      5-min Rain = 0
KHA1 252105Z 14008G15KT 32/17 A2995 RMK A01 T03200169  RH  042%=      5-min Rain = 0
KHA1 252110Z 14007G14KT 32/17 A2995 RMK A01 T03230172  RH  043%=      5-min Rain = 0
KHA1 252115Z 14008G13KT 32/17 A2995 RMK A01 T03230169  RH  042%=      5-min Rain = 0
KHA1 252120Z 14008G14KT 32/16 A2994 RMK A01 T03210164  RH  041%=      5-min Rain = 0
KHA1 252125Z 13009G15KT 32/17 A2994 RMK A01 T03220168  RH  042%=      5-min Rain = 0
KHA1 252130Z 12008KT 32/17 A2994 RMK A01 T03230171  RH  042%=      5-min Rain = 0
KHA1 252135Z 14007KT 32/17 A2994 RMK A01 T03230171  RH  042%=      5-min Rain = 0
KHA1 252140Z 15010KT 32/17 A2994 RMK A01 T03210168  RH  042%=      5-min Rain = 0
KHA1 252145Z 13009KT 32/17 A2994 RMK A01 T03210169  RH  042%=      5-min Rain = 0
KHA1 252150Z 13009KT 32/17 A2994 RMK A01 T03220168  RH  042%=      5-min Rain = 0
KHA1 252155Z 13008KT 32/17 A2994 RMK A01 T03240173  RH  043%=      5-min Rain = 0
KHA1 252200Z 13009G14KT 32/17 A2993 RMK A01 T03230170  RH  042%=      5-min Rain = 0
KHA1 252205Z 13010KT 32/17 A2993 RMK A01 T03210168  RH  042%=      5-min Rain = 0
KHA1 252210Z 13011KT 32/17 A2993 RMK A01 T03220171  RH  043%=      5-min Rain = 0
KHA1 252215Z 13008KT 33/17 A2993 RMK A01 T03250173  RH  043%=      5-min Rain = 0
KHA1 252220Z 13010KT 32/17 A2993 RMK A01 T03240169  RH  042%=      5-min Rain = 0
KHA1 252225Z 13009KT 33/17 A2993 RMK A01 T03250169  RH  042%=      5-min Rain = 0
KHA1 252230Z 13009KT 32/17 A2993 RMK A01 T03230166  RH  041%=      5-min Rain = 0
KHA1 252235Z 13009G14KT 32/17 A2992 RMK A01 T03240174  RH  043%=      5-min Rain = 0
KHA1 252240Z 13012G18KT 32/17 A2992 RMK A01 T03230169  RH  042%=      5-min Rain = 0
KHA1 252245Z 13009KT 32/17 A2992 RMK A01 T03220171  RH  043%=      5-min Rain = 0
KHA1 252250Z 13010G16KT 32/18 A2992 RMK A01 T03230175  RH  043%=      5-min Rain = 0
KHA1 252255Z 13011G16KT 32/18 A2992 RMK A01 T03210176  RH  044%=      5-min Rain = 0
KHA1 252300Z 12011G16KT 32/18 A2992 RMK A01 T03210175  RH  044%=      5-min Rain = 0
KHA1 252305Z 13010G16KT 32/17 A2992 RMK A01 T03210172  RH  043%=      5-min Rain = 0
KHA1 252310Z 13011G17KT 32/17 A2992 RMK A01 T03220170  RH  042%=      5-min Rain = 0
KHA1 252315Z 13010KT 32/17 A2992 RMK A01 T03210170  RH  042%=      5-min Rain = 0
KHA1 252320Z 14010G15KT 32/17 A2992 RMK A01 T03200172  RH  043%=      5-min Rain = 0
KHA1 252325Z 13010KT 32/17 A2992 RMK A01 T03200173  RH  044%=      5-min Rain = 0
KHA1 252330Z 13010G16KT 32/17 A2991 RMK A01 T03200173  RH  043%=      5-min Rain = 0
KHA1 252335Z 13011G16KT 32/17 A2991 RMK A01 T03180170  RH  043%=      5-min Rain = 0
KHA1 252340Z 13010G16KT 32/17 A2991 RMK A01 T03190173  RH  044%=      5-min Rain = 0
KHA1 252345Z 12010G16KT 32/18 A2991 RMK A01 T03190175  RH  045%=      5-min Rain = 0
KHA1 252350Z 13011G18KT 32/17 A2991 RMK A01 T03170174  RH  045%=      5-min Rain = 0
KHA1 252355Z 14008KT 32/18 A2991 RMK A01 T03180175  RH  045%=      5-min Rain = 0
KHA1 260000Z 13011KT 32/18 A2991 RMK A01 T03160175  RH  045%=      5-min Rain = 0
KHA1 260005Z 15010G15KT 32/17 A2991 RMK A01 T03160173  RH  045%=      5-min Rain = 0
KHA1 260010Z 15009G16KT 32/17 A2991 RMK A01 T03160171  RH  044%=      5-min Rain = 0
KHA1 260015Z 15010KT 32/17 A2991 RMK A01 T03160171  RH  044%=      5-min Rain = 0
KHA1 260020Z 15009G14KT 31/17 A2991 RMK A01 T03140169  RH  044%=      5-min Rain = 0
KHA1 260025Z 15008KT 31/17 A2992 RMK A01 T03130170  RH  045%=      5-min Rain = 0
KHA1 260030Z 15007G14KT 31/17 A2992 RMK A01 T03130170  RH  045%=      5-min Rain = 0
KHA1 260035Z 15009G14KT 31/17 A2992 RMK A01 T03120169  RH  044%=      5-min Rain = 0
KHA1 260040Z 14009G14KT 31/17 A2993 RMK A01 T03110167  RH  044%=      5-min Rain = 0
KHA1 260045Z 14008G14KT 31/17 A2993 RMK A01 T03100166  RH  044%=      5-min Rain = 0
KHA1 260050Z 14009G15KT 31/17 A2993 RMK A01 T03090166  RH  044%=      5-min Rain = 0
KHA1 260055Z 14008G13KT 31/17 A2993 RMK A01 T03080167  RH  045%=      5-min Rain = 0
KHA1 260100Z 13008G13KT 31/17 A2993 RMK A01 T03070168  RH  045%=      5-min Rain = 0
KHA1 260105Z 13009G15KT 31/17 A2994 RMK A01 T03060169  RH  046%=      5-min Rain = 0
KHA1 260110Z 14008KT 31/17 A2994 RMK A01 T03050170  RH  047%=      5-min Rain = 0
KHA1 260115Z 14008G13KT 30/17 A2994 RMK A01 T03030169  RH  047%=      5-min Rain = 0
KHA1 260120Z 14008G13KT 30/17 A2994 RMK A01 T03030166  RH  046%=      5-min Rain = 0
KHA1 260125Z 14007KT 30/17 A2994 RMK A01 T03010166  RH  046%=      5-min Rain = 0
KHA1 260130Z 14007KT 30/17 A2994 RMK A01 T02990166  RH  047%=      5-min Rain = 0
KHA1 260135Z 13008KT 30/17 A2994 RMK A01 T02980167  RH  047%=      5-min Rain = 0
KHA1 260140Z 14006KT 30/17 A2995 RMK A01 T02960168  RH  049%=      5-min Rain = 0
KHA1 260145Z 14007KT 29/17 A2995 RMK A01 T02940169  RH  049%=      5-min Rain = 0
KHA1 260150Z 14006KT 29/17 A2995 RMK A01 T02930170  RH  050%=      5-min Rain = 0
KHA1 260155Z 13006KT 29/17 A2995 RMK A01 T02900172  RH  052%=      5-min Rain = 0
KHA1 260200Z 14006KT 29/17 A2995 RMK A01 T02890173  RH  052%=      5-min Rain = 0
KHA1 260205Z 13006KT 29/17 A2996 RMK A01 T02870173  RH  053%=      5-min Rain = 0
KHA1 260210Z 14006KT 29/17 A2996 RMK A01 T02860174  RH  053%=      5-min Rain = 0
KHA1 260215Z 14006KT 29/17 A2996 RMK A01 T02850174  RH  054%=      5-min Rain = 0
KHA1 260220Z 14005KT 28/18 A2996 RMK A01 T02830175  RH  055%=      5-min Rain = 0
KHA1 260225Z 14004KT 28/18 A2996 RMK A01 T02810176  RH  056%=      5-min Rain = 0
KHA1 260230Z 14004KT 28/18 A2997 RMK A01 T02800176  RH  056%=      5-min Rain = 0
KHA1 260235Z 14004KT 28/18 A2997 RMK A01 T02790177  RH  057%=      5-min Rain = 0
KHA1 260240Z 14005KT 28/18 A2998 RMK A01 T02780177  RH  057%=      5-min Rain = 0
KHA1 260245Z 15005KT 28/18 A2998 RMK A01 T02760177  RH  058%=      5-min Rain = 0
KHA1 260250Z 14004KT 28/18 A2998 RMK A01 T02750177  RH  058%=      5-min Rain = 0
KHA1 260255Z 15004KT 27/18 A2998 RMK A01 T02730178  RH  059%=      5-min Rain = 0
KHA1 260300Z 15004KT 27/18 A2999 RMK A01 T02720178  RH  059%=      5-min Rain = 0
KHA1 260305Z 14004KT 27/18 A2999 RMK A01 T02710178  RH  060%=      5-min Rain = 0
KHA1 260310Z 13005KT 27/18 A2999 RMK A01 T02700179  RH  061%=      5-min Rain = 0
KHA1 260315Z 14006KT 27/18 A2999 RMK A01 T02700179  RH  060%=      5-min Rain = 0
KHA1 260320Z 15006KT 27/18 A2999 RMK A01 T02690178  RH  060%=      5-min Rain = 0
KHA1 260325Z 15006KT 27/18 A30 RMK A01 T02700176  RH  059%=      5-min Rain = 0
KHA1 260330Z 15006KT 27/18 A30 RMK A01 T02700176  RH  059%=      5-min Rain = 0
KHA1 260335Z 15005KT 27/18 A30 RMK A01 T02690176  RH  060%=      5-min Rain = 0
KHA1 260340Z 15006KT 27/18 A30 RMK A01 T02680176  RH  060%=      5-min Rain = 0
KHA1 260345Z 15005KT 27/18 A3001 RMK A01 T02670176  RH  061%=      5-min Rain = 0
KHA1 260350Z 15005KT 27/18 A3001 RMK A01 T02660176  RH  061%=      5-min Rain = 0
KHA1 260355Z 14005G10KT 27/18 A3001 RMK A01 T02650177  RH  061%=      5-min Rain = 0
KHA1 260400Z 13008KT 27/18 A3002 RMK A01 T02680177  RH  060%=      5-min Rain = 0
KHA1 260405Z 13007KT 27/18 A3002 RMK A01 T02670178  RH  061%=      5-min Rain = 0
KHA1 260410Z 13006KT 27/18 A3002 RMK A01 T02660179  RH  062%=      5-min Rain = 0
KHA1 260415Z 13004KT 26/18 A3003 RMK A01 T02630180  RH  063%=      5-min Rain = 0
KHA1 260420Z 11003KT 26/18 A3003 RMK A01 T02620181  RH  065%=      5-min Rain = 0
KHA1 260425Z 10002KT 26/18 A3004 RMK A01 T02600183  RH  066%=      5-min Rain = 0
KHA1 260430Z 08002KT 26/19 A3004 RMK A01 T02580185  RH  067%=      5-min Rain = 0
KHA1 260435Z 06003KT 26/18 A3005 RMK A01 T02570184  RH  068%=      5-min Rain = 0
KHA1 260440Z 06003KT 26/19 A3005 RMK A01 T02550186  RH  069%=      5-min Rain = 0
KHA1 260445Z 05003KT 26/19 A3005 RMK A01 T02560188  RH  070%=      5-min Rain = 0
KHA1 260450Z 08004KT 26/19 A3005 RMK A01 T02550189  RH  071%=      5-min Rain = 0
KHA1 260455Z 09004KT 25/19 A3005 RMK A01 T02530194  RH  074%=      5-min Rain = 0

Page generated in 0.0094 seconds.